Pagina principale
METAR-TAF:

METAR-TAF

Aeroporti :

Turaif, Arabia Saudita

latitudine: 31-41N, longitudine: 038-44E, altezza: 813 m

Osservazione

Il bollettino è stato emesso 1 ora e 12 minuti fa, alle 06:00 UTC
Vento 16 kt da ovest
Temperature 26°C
Umidità 37%
Pressione 1013 hPa
Visibilità 10 km o più
nessuna nube inferiore a 1500 m e nessun cumulonembo

METAR: OETR 200600Z 26016KT CAVOK 26/10 Q1013

Ora: 10:12 (07:12 UTC)

Previsione

Il bollettino è stato emesso 8 ore e 12 minuti fa, alle 23:00 UTC
Previsione valida dal 20 alle 00 UTC al 21 alle 06 UTC
Vento 3 kt da direzioni variabili
Visibilità 10 km o più
nessuna nube inferiore a 1500 m e nessun cumulonembo
Evoluzione graduale
dal 20 alle 06 UTC al 20 alle 08 UTC
Vento 10 kt da ovest/nord-ovest con raffiche fino a 20 kt
Temporaneamente
dal 20 alle 06 UTC al 20 alle 14 UTC
Visibilità: 4000 m
polvere diffusa, Scaccia polvere alto

TAF: OETR 192300Z 2000/2106 VRB03KT CAVOK BECMG 2006/2008 29010G20KT TEMPO 2006/2014 4000 DU BLDU

Osservazioni e previsioni meteorologiche di più di 4000 aeroporti (messaggi METAR e TAF).

Le stazioni disponibili sono rappresentate dai dischi gialli e rossi sulla carta.

Puntare il mouse per vedere il nome della stazione.

Clicca sopra per visualizzare le osservazioni e previsioni meteorologiche.

Per cambiare la mappa : fare clic sui pulsanti verdi con una croce nera per ingrandire, il pulsante verde con un trattino per diminuire, o sulla freccia verde per le mappe adiacenti.


METAR-TAF: